Time;durP1;ratioP1;P1;durP2;ratioP2;P2;SDS_P1;SDS_P2;PMS_P1;PMS_P2;Temp;Humidity;BMP_temperature;BMP_pressure;BME280_temperature;BME280_humidity;BME280_pressure;Samples;Min_cycle;Max_cycle;Signal;HPM_P1;HPM_P2
2023/12/23 00:02:13;;;;;;;1.20;0.80;;;;;;;8.65;70.14;95450.00;4973297;28;20533;-68
2023/12/23 00:04:38;;;;;;;1.40;0.90;;;;;;;8.69;70.00;95454.16;4972456;28;20224;-68
2023/12/23 00:07:03;;;;;;;1.27;0.87;;;;;;;8.66;70.24;95459.53;4979703;28;20173;-67
2023/12/23 00:09:29;;;;;;;0.90;0.70;;;;;;;8.57;70.24;95480.91;4966574;28;20581;-67
2023/12/23 00:11:54;;;;;;;2.23;0.70;;;;;;;8.65;70.21;95477.94;4968239;28;20214;-68
2023/12/23 00:14:20;;;;;;;1.87;0.90;;;;;;;8.64;69.67;95492.75;4953099;28;20186;-68
2023/12/23 00:16:45;;;;;;;2.03;0.93;;;;;;;8.50;69.85;95500.47;4968485;28;20265;-68
2023/12/23 00:19:11;;;;;;;1.60;1.00;;;;;;;8.69;69.57;95503.00;4952418;28;20676;-69
2023/12/23 00:21:36;;;;;;;2.83;0.90;;;;;;;8.77;68.64;95510.47;4962111;28;20564;-69
2023/12/23 00:24:02;;;;;;;1.10;0.70;;;;;;;8.71;69.04;95506.38;4958141;28;20269;-69
2023/12/23 00:26:27;;;;;;;1.73;0.80;;;;;;;8.75;68.47;95512.31;4952235;28;20681;-69
2023/12/23 00:28:53;;;;;;;1.67;0.70;;;;;;;8.69;68.31;95509.09;4952240;28;20233;-68
2023/12/23 00:31:18;;;;;;;1.30;0.80;;;;;;;8.73;68.42;95508.94;4952110;28;20179;-69
2023/12/23 00:33:44;;;;;;;1.20;0.80;;;;;;;8.77;68.38;95511.31;4952255;28;21163;-69
2023/12/23 00:36:10;;;;;;;3.33;0.80;;;;;;;8.71;68.70;95518.63;4952367;28;20179;-69
2023/12/23 00:38:36;;;;;;;3.03;0.80;;;;;;;8.68;68.51;95511.78;4953095;28;21314;-69
2023/12/23 00:41:02;;;;;;;1.07;0.80;;;;;;;8.73;69.02;95512.38;4951768;28;20440;-69
2023/12/23 00:43:27;;;;;;;2.00;0.90;;;;;;;8.76;68.56;95527.91;4952248;28;20283;-68
2023/12/23 00:45:52;;;;;;;1.30;0.80;;;;;;;8.73;68.92;95528.06;4963572;28;20555;-68
2023/12/23 00:48:18;;;;;;;1.40;0.80;;;;;;;8.68;69.67;95524.84;4969263;28;20182;-70
2023/12/23 00:50:43;;;;;;;2.57;0.90;;;;;;;8.65;70.07;95527.63;4969504;28;20534;-69
2023/12/23 00:53:08;;;;;;;2.70;1.00;;;;;;;8.59;69.98;95536.59;4969038;28;20236;-69
2023/12/23 00:55:34;;;;;;;1.53;0.90;;;;;;;8.50;71.38;95525.75;4960456;28;20222;-69
2023/12/23 00:57:59;;;;;;;1.63;1.20;;;;;;;8.57;70.58;95533.22;4955170;28;20543;-68
2023/12/23 01:00:24;;;;;;;1.40;0.80;;;;;;;8.53;70.98;95531.72;4969778;28;20205;-69
2023/12/23 01:02:50;;;;;;;1.00;0.80;;;;;;;8.65;70.34;95530.25;4958455;28;20201;-68
2023/12/23 01:05:15;;;;;;;1.37;0.93;;;;;;;8.61;70.80;95533.94;4957136;28;20198;-68
2023/12/23 01:07:42;;;;;;;1.13;0.70;;;;;;;8.62;70.46;95531.25;4950763;28;20191;-70
2023/12/23 01:10:08;;;;;;;2.17;0.70;;;;;;;8.60;70.29;95545.31;4951397;28;20182;-68
2023/12/23 01:12:33;;;;;;;2.30;0.70;;;;;;;8.49;70.59;95551.06;4951424;28;21106;-69
2023/12/23 01:14:59;;;;;;;1.57;0.80;;;;;;;8.50;71.10;95547.53;4959016;28;20340;-69
2023/12/23 01:17:24;;;;;;;2.17;0.90;;;;;;;8.62;70.57;95546.94;4969157;28;20186;-69
2023/12/23 01:19:49;;;;;;;1.03;0.80;;;;;;;8.52;70.33;95565.75;4968911;28;20720;-67
2023/12/23 01:22:15;;;;;;;1.23;0.77;;;;;;;8.47;71.87;95568.59;4968780;28;20212;-68
2023/12/23 01:24:40;;;;;;;3.00;0.90;;;;;;;8.57;70.62;95567.22;4967045;28;20734;-68
2023/12/23 01:27:05;;;;;;;1.20;0.70;;;;;;;8.52;70.87;95564.00;4968368;28;20193;-68
2023/12/23 01:29:31;;;;;;;1.90;1.00;;;;;;;8.47;70.84;95581.69;4968167;28;20197;-69
2023/12/23 01:31:56;;;;;;;1.00;0.70;;;;;;;8.43;71.79;95578.38;4967301;28;20573;-69
2023/12/23 01:34:21;;;;;;;1.20;1.10;;;;;;;8.52;71.71;95586.69;4969011;28;20189;-68
2023/12/23 01:36:47;;;;;;;1.10;0.70;;;;;;;8.41;71.31;95595.91;4965663;28;20190;-68
2023/12/23 01:39:12;;;;;;;1.00;0.63;;;;;;;8.51;70.81;95596.31;4957738;28;20197;-67
2023/12/23 01:41:38;;;;;;;1.33;0.80;;;;;;;8.54;69.85;95614.44;4955573;28;20241;-69
2023/12/23 01:44:03;;;;;;;1.30;0.80;;;;;;;8.53;70.82;95623.22;4962010;28;20185;-69
2023/12/23 01:46:29;;;;;;;1.63;0.87;;;;;;;8.54;70.33;95617.06;4966842;28;20188;-69
2023/12/23 01:48:55;;;;;;;1.30;0.90;;;;;;;8.47;71.50;95639.19;4967360;28;20189;-69
2023/12/23 01:51:22;;;;;;;1.20;0.70;;;;;;;8.43;71.99;95630.66;4982575;28;20193;-69
2023/12/23 01:53:48;;;;;;;1.40;0.80;;;;;;;8.52;70.82;95642.44;4962579;28;20536;-69
2023/12/23 01:56:14;;;;;;;1.53;0.90;;;;;;;8.47;71.73;95647.03;4964741;28;20424;-69
2023/12/23 01:58:39;;;;;;;1.20;0.80;;;;;;;8.40;71.64;95648.25;4967187;28;20459;-69
2023/12/23 02:01:05;;;;;;;6.53;0.90;;;;;;;8.55;71.40;95646.66;4965518;28;20190;-68
2023/12/23 02:03:31;;;;;;;2.17;0.60;;;;;;;8.43;71.39;95658.56;4968202;28;20193;-68
2023/12/23 02:05:57;;;;;;;1.13;0.80;;;;;;;8.34;71.77;95665.06;4968293;28;20743;-68
2023/12/23 02:08:22;;;;;;;1.67;0.90;;;;;;;8.33;72.87;95654.66;4967286;28;20432;-69
2023/12/23 02:10:53;;;;;;;1.27;0.70;;;;;;;8.51;71.58;95677.38;4967190;28;20236;-67
2023/12/23 02:13:26;;;;;;;1.23;0.80;;;;;;;8.31;72.65;95691.31;4968071;28;20304;-68
2023/12/23 02:15:52;;;;;;;2.50;0.90;;;;;;;8.42;73.05;95675.19;4968052;28;20447;-71
2023/12/23 02:18:19;;;;;;;1.10;0.70;;;;;;;8.45;72.62;95685.47;4967787;28;20806;-69
2023/12/23 02:20:48;;;;;;;1.97;0.80;;;;;;;8.39;73.53;95698.84;4966963;28;20452;-69
2023/12/23 02:23:13;;;;;;;1.30;0.60;;;;;;;8.33;73.41;95692.09;4968618;28;20457;-68
2023/12/23 02:25:39;;;;;;;1.87;0.80;;;;;;;8.29;73.81;95703.59;4967589;28;20468;-68
2023/12/23 02:28:07;;;;;;;1.10;0.80;;;;;;;8.33;72.50;95699.09;4967005;28;20189;-68
2023/12/23 02:30:35;;;;;;;1.83;0.90;;;;;;;8.34;72.78;95696.44;4967137;28;20193;-69
2023/12/23 02:33:01;;;;;;;1.33;0.80;;;;;;;8.39;72.54;95688.38;4966737;28;20471;-68
2023/12/23 02:35:27;;;;;;;2.80;0.80;;;;;;;8.42;71.52;95681.25;4966877;28;20429;-68
2023/12/23 02:37:52;;;;;;;1.57;0.90;;;;;;;8.29;72.30;95682.69;4966630;28;20743;-69
2023/12/23 02:40:18;;;;;;;1.17;0.73;;;;;;;8.36;71.65;95673.69;4965782;28;20523;-70
2023/12/23 02:42:44;;;;;;;1.00;0.70;;;;;;;8.18;72.60;95688.44;4967484;28;20216;-68
2023/12/23 02:45:09;;;;;;;1.53;0.90;;;;;;;8.20;72.88;95698.84;4967383;28;20507;-68
2023/12/23 02:47:34;;;;;;;1.93;0.90;;;;;;;8.26;72.15;95696.75;4965944;28;20201;-68
2023/12/23 02:50:00;;;;;;;3.23;0.80;;;;;;;8.31;72.59;95700.94;4965888;28;20212;-68
2023/12/23 02:52:25;;;;;;;1.10;0.73;;;;;;;8.36;70.74;95696.34;4967292;28;20216;-69
2023/12/23 02:54:51;;;;;;;1.50;0.83;;;;;;;8.20;72.26;95694.44;4965189;28;20278;-69
2023/12/23 02:57:16;;;;;;;1.10;0.90;;;;;;;8.37;71.21;95704.13;4967429;28;20655;-69
2023/12/23 02:59:41;;;;;;;1.30;0.80;;;;;;;8.32;71.26;95713.94;4966097;28;20264;-68
2023/12/23 03:02:07;;;;;;;1.10;0.80;;;;;;;8.36;71.40;95710.28;4967189;28;20201;-69
2023/12/23 03:04:33;;;;;;;1.40;0.90;;;;;;;8.38;71.08;95718.88;4966935;28;20690;-68
2023/12/23 03:06:59;;;;;;;1.40;0.90;;;;;;;8.33;70.99;95710.41;4967894;28;20186;-68
2023/12/23 03:09:25;;;;;;;3.30;1.00;;;;;;;8.31;71.36;95721.84;4967383;28;20811;-68
2023/12/23 03:11:50;;;;;;;1.10;1.00;;;;;;;8.45;70.15;95722.09;4966712;28;20212;-68
2023/12/23 03:14:16;;;;;;;1.00;0.80;;;;;;;8.30;71.39;95718.38;4968749;28;20432;-69
2023/12/23 03:16:41;;;;;;;3.87;1.10;;;;;;;8.32;70.77;95731.41;4968527;28;20190;-70
2023/12/23 03:19:08;;;;;;;1.30;1.00;;;;;;;8.39;71.04;95723.19;4968670;28;20186;-68
2023/12/23 03:21:34;;;;;;;2.50;0.80;;;;;;;8.30;71.05;95725.38;4965953;28;20415;-68
2023/12/23 03:24:00;;;;;;;2.37;0.70;;;;;;;8.24;71.33;95730.00;4960322;28;21046;-69
2023/12/23 03:26:26;;;;;;;1.67;0.80;;;;;;;8.35;70.74;95718.19;4966421;28;20188;-68
2023/12/23 03:28:51;;;;;;;0.97;0.70;;;;;;;8.35;71.15;95728.63;4964259;28;21111;-69
2023/12/23 03:31:16;;;;;;;2.97;0.70;;;;;;;8.25;71.64;95731.66;4963238;28;20186;-68
2023/12/23 03:33:43;;;;;;;1.00;0.77;;;;;;;8.33;71.47;95733.94;4966481;28;20212;-68
2023/12/23 03:36:09;;;;;;;1.13;0.90;;;;;;;8.21;72.91;95743.16;4967890;28;20218;-67
2023/12/23 03:38:35;;;;;;;2.33;0.80;;;;;;;8.19;73.14;95739.78;4970117;28;20938;-69
2023/12/23 03:41:00;;;;;;;1.40;0.80;;;;;;;8.14;74.22;95739.13;4964718;28;20220;-70
2023/12/23 03:43:26;;;;;;;1.80;1.00;;;;;;;8.17;73.95;95739.03;4966685;28;20217;-69
2023/12/23 03:45:51;;;;;;;2.00;0.90;;;;;;;8.06;74.29;95736.03;4966770;28;20217;-68
2023/12/23 03:48:16;;;;;;;1.47;0.83;;;;;;;8.09;73.93;95740.28;4965464;28;20185;-69
2023/12/23 03:50:42;;;;;;;2.50;0.80;;;;;;;8.04;75.01;95743.94;4965924;28;20181;-68
2023/12/23 03:53:08;;;;;;;2.90;0.80;;;;;;;8.15;74.25;95742.59;4966373;28;20220;-68
2023/12/23 03:55:33;;;;;;;2.37;0.90;;;;;;;8.04;74.59;95740.47;4958923;28;20209;-70
2023/12/23 03:57:59;;;;;;;0.93;0.60;;;;;;;8.04;74.28;95743.94;4966497;28;20527;-70
2023/12/23 04:00:26;;;;;;;1.93;0.80;;;;;;;8.16;73.82;95745.16;4967165;28;20196;-68
2023/12/23 04:02:52;;;;;;;2.30;0.70;;;;;;;8.15;73.41;95751.31;4966742;28;20217;-68
2023/12/23 04:05:17;;;;;;;1.43;0.70;;;;;;;8.19;72.58;95755.47;4969418;28;20523;-70
2023/12/23 04:07:42;;;;;;;1.10;0.70;;;;;;;8.21;73.11;95740.56;4967101;28;20186;-69
2023/12/23 04:10:08;;;;;;;3.07;0.70;;;;;;;8.17;73.34;95740.75;4968823;28;20684;-68
2023/12/23 04:12:33;;;;;;;3.37;1.00;;;;;;;8.15;73.58;95751.31;4972539;28;20201;-69
2023/12/23 04:14:59;;;;;;;3.23;0.70;;;;;;;8.09;73.58;95745.50;4964340;28;20308;-69
2023/12/23 04:17:24;;;;;;;2.83;1.10;;;;;;;8.18;73.54;95750.31;4967112;28;20205;-70
2023/12/23 04:19:50;;;;;;;1.33;0.77;;;;;;;8.09;73.67;95746.34;4966405;28;20255;-70
2023/12/23 04:22:16;;;;;;;3.00;1.00;;;;;;;8.06;73.88;95743.88;4960810;28;20209;-68
2023/12/23 04:24:41;;;;;;;1.97;0.70;;;;;;;8.00;75.08;95737.13;4961917;28;20268;-69
2023/12/23 04:27:07;;;;;;;1.00;0.60;;;;;;;7.97;74.90;95731.22;4964764;28;20220;-69
2023/12/23 04:29:32;;;;;;;4.20;1.00;;;;;;;8.00;74.04;95726.69;4965655;28;20824;-69
2023/12/23 04:31:58;;;;;;;9.00;1.17;;;;;;;8.02;73.96;95744.91;4964998;28;20280;-69
2023/12/23 04:34:23;;;;;;;1.67;0.70;;;;;;;7.97;74.47;95726.00;4965583;28;20644;-69
2023/12/23 04:36:48;;;;;;;1.00;0.70;;;;;;;7.98;74.87;95725.06;4965167;28;20259;-69
2023/12/23 04:39:14;;;;;;;1.73;0.70;;;;;;;7.99;74.41;95726.78;4965649;28;20181;-69
2023/12/23 04:41:46;;;;;;;1.67;0.70;;;;;;;8.04;73.71;95727.41;4966182;28;20186;-68
2023/12/23 04:44:13;;;;;;;1.00;0.70;;;;;;;7.97;74.68;95733.81;4966801;28;20272;-68
2023/12/23 04:46:38;;;;;;;1.67;0.80;;;;;;;8.07;74.23;95732.50;4969161;28;20429;-69
2023/12/23 04:49:04;;;;;;;1.17;0.80;;;;;;;8.08;73.84;95736.81;4969713;28;20495;-68
2023/12/23 04:51:29;;;;;;;1.13;0.70;;;;;;;8.13;73.76;95739.22;4968211;28;20273;-69
2023/12/23 04:53:54;;;;;;;4.53;1.00;;;;;;;8.03;73.55;95737.03;4969647;28;20185;-68
2023/12/23 04:56:20;;;;;;;2.67;0.80;;;;;;;8.03;73.78;95734.41;4966403;28;21616;-68
2023/12/23 04:58:45;;;;;;;0.90;0.70;;;;;;;8.03;73.73;95728.31;4970054;28;20190;-69
2023/12/23 05:01:11;;;;;;;2.83;0.80;;;;;;;8.00;73.74;95723.22;4970443;28;20720;-68
2023/12/23 05:03:36;;;;;;;1.20;1.00;;;;;;;8.03;73.33;95725.69;4969894;28;20251;-69
2023/12/23 05:06:02;;;;;;;1.10;0.80;;;;;;;7.98;73.76;95733.75;4969548;28;20588;-68
2023/12/23 05:08:27;;;;;;;4.93;1.00;;;;;;;8.06;73.23;95739.50;4966940;28;20201;-69
2023/12/23 05:10:53;;;;;;;1.60;1.00;;;;;;;8.00;73.36;95741.53;4969921;28;20664;-69
2023/12/23 05:13:18;;;;;;;1.20;0.90;;;;;;;7.95;74.09;95748.72;4969442;28;20542;-70
2023/12/23 05:15:43;;;;;;;1.63;0.73;;;;;;;7.91;74.37;95740.16;4969105;28;20181;-68
2023/12/23 05:18:09;;;;;;;0.87;0.60;;;;;;;7.92;73.81;95741.03;4968336;28;20189;-69
2023/12/23 05:20:34;;;;;;;1.20;0.80;;;;;;;7.92;74.14;95749.69;4966148;28;20193;-68
2023/12/23 05:23:00;;;;;;;1.20;0.90;;;;;;;7.95;74.35;95748.72;4969206;28;20201;-69
2023/12/23 05:25:25;;;;;;;2.07;0.90;;;;;;;7.89;74.59;95751.59;4968570;28;20205;-68
2023/12/23 05:27:51;;;;;;;1.00;0.70;;;;;;;7.86;75.03;95752.56;4968619;28;20205;-69
2023/12/23 05:30:16;;;;;;;2.03;0.67;;;;;;;7.93;74.61;95746.16;4967119;28;20201;-70
2023/12/23 05:32:43;;;;;;;1.00;0.63;;;;;;;7.82;74.61;95754.47;4968767;28;20193;-69
2023/12/23 05:35:09;;;;;;;4.90;0.90;;;;;;;7.83;75.52;95755.31;4969499;28;20178;-68
2023/12/23 05:37:34;;;;;;;4.00;0.80;;;;;;;7.91;75.15;95747.16;4970120;28;20873;-68
2023/12/23 05:40:00;;;;;;;1.10;0.70;;;;;;;7.82;75.77;95749.25;4968946;28;20185;-68
2023/12/23 05:42:25;;;;;;;1.00;0.70;;;;;;;7.80;76.18;95751.09;4969840;28;20201;-68
2023/12/23 05:44:51;;;;;;;1.00;0.80;;;;;;;7.76;76.51;95744.28;4969706;28;20308;-69
2023/12/23 05:47:16;;;;;;;1.73;0.70;;;;;;;7.84;76.47;95746.56;4971434;28;20184;-68
2023/12/23 05:49:42;;;;;;;0.90;0.70;;;;;;;7.76;75.84;95731.22;4969367;28;20188;-68
2023/12/23 05:52:07;;;;;;;1.27;0.70;;;;;;;7.88;75.79;95724.63;4970586;28;20295;-69
2023/12/23 05:54:33;;;;;;;5.13;0.90;;;;;;;7.78;76.78;95713.72;4969276;28;20204;-67
2023/12/23 05:56:58;;;;;;;0.90;0.60;;;;;;;7.73;76.35;95701.81;4969008;28;20224;-67
2023/12/23 05:59:24;;;;;;;0.90;0.70;;;;;;;7.80;76.57;95693.63;4970372;28;20173;-68
2023/12/23 06:01:50;;;;;;;4.00;0.90;;;;;;;7.83;76.04;95697.84;4971158;28;20213;-68
2023/12/23 06:04:15;;;;;;;1.20;0.80;;;;;;;7.86;75.75;95687.28;4971557;28;20181;-68
2023/12/23 06:06:40;;;;;;;2.80;0.97;;;;;;;7.91;75.69;95681.84;4973146;28;20746;-68
2023/12/23 06:09:06;;;;;;;1.30;0.90;;;;;;;7.94;75.45;95668.66;4977091;28;20192;-69
2023/12/23 06:11:31;;;;;;;1.20;0.83;;;;;;;8.00;74.86;95673.59;4975853;28;20185;-70
2023/12/23 06:13:57;;;;;;;1.10;0.80;;;;;;;7.79;74.93;95689.28;4968995;28;20180;-68
2023/12/23 06:16:22;;;;;;;1.33;0.90;;;;;;;7.82;75.46;95691.78;4956019;28;20261;-69
2023/12/23 06:18:48;;;;;;;1.50;0.90;;;;;;;7.89;74.98;95683.66;4954391;28;20228;-69
2023/12/23 06:21:13;;;;;;;7.43;1.23;;;;;;;7.94;74.46;95684.34;4966950;28;20196;-68
2023/12/23 06:23:38;;;;;;;1.37;0.83;;;;;;;7.89;75.13;95689.75;4966471;28;20209;-68
2023/12/23 06:26:04;;;;;;;2.57;0.97;;;;;;;7.91;74.05;95680.06;4967855;28;20228;-69
2023/12/23 06:28:29;;;;;;;3.73;0.80;;;;;;;7.92;74.40;95680.94;4966276;28;20177;-68
2023/12/23 06:30:54;;;;;;;1.23;0.93;;;;;;;7.91;74.39;95671.38;4967595;28;20227;-69
2023/12/23 06:33:20;;;;;;;0.90;0.77;;;;;;;7.84;74.56;95676.03;4967344;28;20293;-68
2023/12/23 06:35:45;;;;;;;2.20;0.87;;;;;;;7.89;73.30;95675.84;4967609;28;20227;-68
2023/12/23 06:38:12;;;;;;;1.30;0.70;;;;;;;7.90;74.51;95669.72;4967411;28;20178;-68
2023/12/23 06:40:38;;;;;;;4.23;1.00;;;;;;;7.89;73.56;95668.00;4968719;28;20189;-68
2023/12/23 06:43:03;;;;;;;1.70;1.20;;;;;;;7.89;73.99;95660.16;4966978;28;20864;-68
2023/12/23 06:45:29;;;;;;;1.80;0.77;;;;;;;7.92;73.63;95657.44;4967162;28;20293;-68
2023/12/23 06:47:54;;;;;;;1.20;1.10;;;;;;;7.95;73.64;95657.28;4968090;28;20741;-68
2023/12/23 06:50:19;;;;;;;2.13;0.97;;;;;;;7.97;72.90;95652.84;4968212;28;20213;-70
2023/12/23 06:52:45;;;;;;;7.63;1.30;;;;;;;7.96;73.17;95649.38;4967637;28;20212;-69
2023/12/23 06:55:11;;;;;;;1.33;0.80;;;;;;;7.92;72.73;95646.97;4967714;28;20209;-68
2023/12/23 06:57:36;;;;;;;0.90;0.70;;;;;;;8.00;72.45;95652.69;4966375;28;20197;-68
2023/12/23 07:00:02;;;;;;;1.63;0.70;;;;;;;8.00;72.75;95650.06;4967275;28;20804;-68
2023/12/23 07:02:27;;;;;;;3.57;0.80;;;;;;;8.10;72.45;95655.72;4968262;28;20691;-69
2023/12/23 07:04:53;;;;;;;1.20;0.73;;;;;;;8.07;70.76;95651.50;4967070;28;20300;-68
2023/12/23 07:07:18;;;;;;;3.37;0.90;;;;;;;8.01;71.57;95649.19;4968027;28;21014;-70
2023/12/23 07:09:43;;;;;;;0.90;0.70;;;;;;;7.93;72.22;95651.28;4967719;28;20931;-68
2023/12/23 07:12:09;;;;;;;1.20;0.87;;;;;;;7.98;72.41;95657.13;4967299;28;20210;-69
2023/12/23 07:14:34;;;;;;;1.00;0.70;;;;;;;8.07;71.75;95659.31;4972719;28;20181;-69
2023/12/23 07:17:00;;;;;;;2.07;0.90;;;;;;;8.02;71.76;95658.69;4966089;28;20193;-68
2023/12/23 07:19:25;;;;;;;1.03;0.70;;;;;;;7.92;72.23;95667.88;4965382;28;20593;-68
2023/12/23 07:21:53;;;;;;;1.20;0.80;;;;;;;7.97;71.58;95668.50;4967457;28;20279;-69
2023/12/23 07:24:19;;;;;;;1.37;0.73;;;;;;;8.00;72.13;95668.38;4967387;28;20181;-69
2023/12/23 07:26:45;;;;;;;1.87;1.67;;;;;;;8.01;71.52;95668.31;4966114;28;20477;-68
2023/12/23 07:29:10;;;;;;;1.40;0.73;;;;;;;7.90;71.73;95677.53;4967624;28;20441;-69
2023/12/23 07:31:35;;;;;;;1.03;0.80;;;;;;;8.03;70.13;95679.53;4967277;28;20181;-69
2023/12/23 07:34:02;;;;;;;2.00;1.50;;;;;;;8.12;70.03;95673.03;4967443;28;20269;-70
2023/12/23 07:36:28;;;;;;;0.90;0.70;;;;;;;8.17;69.74;95667.59;4963767;28;20605;-68
2023/12/23 07:38:53;;;;;;;2.00;1.33;;;;;;;8.16;69.70;95669.34;4966803;28;20437;-68
2023/12/23 07:41:18;;;;;;;2.37;0.77;;;;;;;8.22;69.00;95671.69;4965437;28;20727;-68
2023/12/23 07:43:44;;;;;;;1.50;1.00;;;;;;;8.20;69.38;95667.47;4956901;28;20279;-69
2023/12/23 07:46:11;;;;;;;4.90;1.20;;;;;;;8.19;69.27;95666.59;4966672;28;20271;-69
2023/12/23 07:48:36;;;;;;;5.43;1.30;;;;;;;8.22;68.75;95666.47;4961726;28;20173;-69
2023/12/23 07:51:08;;;;;;;3.03;1.17;;;;;;;8.22;69.14;95645.56;4966798;28;20487;-67
2023/12/23 07:53:34;;;;;;;2.50;0.90;;;;;;;8.22;69.24;95670.84;4967069;28;20297;-69
2023/12/23 07:55:59;;;;;;;1.87;0.83;;;;;;;8.20;69.02;95670.09;4965944;28;20527;-69
2023/12/23 07:58:24;;;;;;;1.50;0.90;;;;;;;8.11;70.28;95670.50;4967646;28;20185;-69
2023/12/23 08:00:50;;;;;;;1.17;0.77;;;;;;;8.28;69.87;95668.78;4965985;28;20185;-68
2023/12/23 08:03:15;;;;;;;1.67;0.80;;;;;;;8.16;70.38;95679.81;4966754;28;20224;-68
2023/12/23 08:05:40;;;;;;;1.13;0.90;;;;;;;8.24;69.99;95685.56;4967523;28;20575;-67
2023/12/23 08:08:07;;;;;;;3.07;1.13;;;;;;;8.15;70.94;95692.94;4969447;28;20270;-69
2023/12/23 08:10:33;;;;;;;1.57;1.00;;;;;;;8.21;70.44;95693.50;4971697;28;20181;-68
2023/12/23 08:12:58;;;;;;;1.03;0.80;;;;;;;8.36;69.16;95704.19;4965705;28;21035;-70
2023/12/23 08:15:24;;;;;;;1.57;1.00;;;;;;;8.23;69.63;95701.28;4975099;28;20425;-68
2023/12/23 08:17:49;;;;;;;1.53;1.00;;;;;;;8.28;70.06;95717.59;4970088;28;20193;-70
2023/12/23 08:20:15;;;;;;;6.00;0.90;;;;;;;8.27;70.07;95714.16;4971976;28;20296;-68
2023/12/23 08:22:41;;;;;;;2.23;1.30;;;;;;;8.36;69.91;95720.72;4970973;28;20201;-68
2023/12/23 08:25:07;;;;;;;3.67;1.03;;;;;;;8.35;69.52;95719.03;4971788;28;20312;-69
2023/12/23 08:27:32;;;;;;;3.60;1.20;;;;;;;8.29;69.49;95716.69;4967462;28;20285;-68
2023/12/23 08:29:57;;;;;;;2.17;0.97;;;;;;;8.27;69.71;95718.53;4981948;28;20200;-68
2023/12/23 08:32:23;;;;;;;5.53;1.57;;;;;;;8.26;70.45;95711.59;4971720;28;20205;-67
2023/12/23 08:34:48;;;;;;;59.77;6.50;;;;;;;8.31;70.93;95708.78;4970545;28;20188;-67
2023/12/23 08:37:14;;;;;;;38.63;2.93;;;;;;;8.34;70.44;95711.25;4969727;28;20213;-68
2023/12/23 08:39:39;;;;;;;3.73;1.73;;;;;;;8.35;70.70;95716.41;4964871;28;20258;-68
2023/12/23 08:42:04;;;;;;;4.00;1.20;;;;;;;8.30;72.37;95712.31;4970313;28;20228;-67
2023/12/23 08:44:30;;;;;;;9.83;1.80;;;;;;;8.24;72.31;95710.81;4970148;28;20249;-68
2023/12/23 08:46:56;;;;;;;7.93;2.67;;;;;;;8.19;72.98;95707.56;4966452;28;20257;-71
2023/12/23 08:49:21;;;;;;;2.10;1.17;;;;;;;8.21;73.30;95708.34;4966878;28;20982;-68
2023/12/23 08:51:47;;;;;;;1.93;1.40;;;;;;;8.11;73.29;95714.94;4961134;28;20243;-68
2023/12/23 08:54:12;;;;;;;3.57;1.47;;;;;;;8.08;73.17;95715.91;4968752;28;20217;-69
2023/12/23 08:56:38;;;;;;;1.50;1.10;;;;;;;8.20;72.74;95707.50;4966763;28;20189;-69
2023/12/23 08:59:03;;;;;;;1.83;1.00;;;;;;;8.27;72.72;95703.69;4958834;28;20645;-69
2023/12/23 09:01:29;;;;;;;6.30;1.23;;;;;;;8.22;72.97;95713.53;4964057;28;20883;-69
2023/12/23 09:03:54;;;;;;;1.20;0.87;;;;;;;8.29;72.86;95729.75;4965789;28;20645;-70
2023/12/23 09:06:19;;;;;;;1.00;0.80;;;;;;;8.24;72.87;95718.66;4964729;28;20657;-68
2023/12/23 09:08:45;;;;;;;1.77;1.10;;;;;;;8.26;73.31;95727.28;4968948;28;20641;-70
2023/12/23 09:11:10;;;;;;;1.87;1.20;;;;;;;8.11;74.19;95731.44;4968888;28;20182;-66
2023/12/23 09:13:36;;;;;;;1.40;0.90;;;;;;;8.16;74.42;95728.63;4962931;28;20917;-66
2023/12/23 09:16:05;;;;;;;2.20;1.20;;;;;;;8.10;74.92;95729.72;4958325;28;20174;-68
2023/12/23 09:18:31;;;;;;;10.97;2.30;;;;;;;8.18;73.88;95725.03;4962566;28;20433;-68
2023/12/23 09:20:56;;;;;;;20.90;3.30;;;;;;;8.21;73.06;95724.03;4957293;28;20509;-68
2023/12/23 09:23:22;;;;;;;14.13;2.77;;;;;;;8.32;73.66;95728.78;4956389;28;20472;-67
2023/12/23 09:25:48;;;;;;;7.33;1.97;;;;;;;8.20;72.75;95717.97;4967836;28;20236;-68
2023/12/23 09:28:13;;;;;;;1.73;0.97;;;;;;;8.23;72.49;95725.66;4968371;28;20252;-68
2023/12/23 09:30:39;;;;;;;6.17;1.10;;;;;;;8.16;73.76;95729.47;4955675;28;20705;-68
2023/12/23 09:33:05;;;;;;;1.27;0.70;;;;;;;8.34;73.04;95719.09;4963808;28;20225;-66
2023/12/23 09:35:31;;;;;;;4.27;0.93;;;;;;;8.30;72.27;95723.63;4956839;28;20182;-65
2023/12/23 09:37:57;;;;;;;2.63;0.80;;;;;;;8.23;72.50;95733.50;4950624;28;20481;-67
2023/12/23 09:40:22;;;;;;;10.20;1.20;;;;;;;8.21;71.91;95740.56;4958144;28;20183;-67
2023/12/23 09:42:48;;;;;;;6.73;1.27;;;;;;;8.22;71.84;95749.25;4959305;28;21163;-66
2023/12/23 09:45:16;;;;;;;1.00;0.90;;;;;;;8.30;71.88;95741.91;4954748;28;20217;-67
2023/12/23 09:47:42;;;;;;;1.40;0.90;;;;;;;8.29;71.32;95742.81;4966731;28;20417;-67
2023/12/23 09:50:07;;;;;;;6.47;0.90;;;;;;;8.24;71.50;95756.13;4970033;28;20794;-67
2023/12/23 09:52:33;;;;;;;2.80;1.53;;;;;;;8.25;71.60;95746.50;4968885;28;20252;-65
2023/12/23 09:55:03;;;;;;;1.97;0.80;;;;;;;8.42;72.14;95738.78;4964532;28;20264;-67
2023/12/23 09:57:30;;;;;;;5.30;1.60;;;;;;;8.95;82.42;95737.16;4961966;28;20174;-67
2023/12/23 09:59:57;;;;;;;3.33;1.43;;;;;;;8.72;69.73;95738.28;4958350;28;20429;-68
2023/12/23 10:02:22;;;;;;;3.50;1.17;;;;;;;8.55;70.69;95741.69;4968038;28;20442;-67
2023/12/23 10:04:48;;;;;;;1.40;1.00;;;;;;;8.39;71.04;95741.50;4961936;28;20501;-67
2023/12/23 10:07:16;;;;;;;3.00;1.00;;;;;;;8.39;72.46;95735.44;4960773;28;20212;-66
2023/12/23 10:09:41;;;;;;;2.27;0.83;;;;;;;8.36;71.89;95741.66;4963178;28;20276;-66
2023/12/23 10:12:07;;;;;;;1.93;1.00;;;;;;;8.32;72.96;95742.69;4969131;28;20532;-65
2023/12/23 10:14:32;;;;;;;4.97;1.33;;;;;;;8.37;73.16;95726.81;4966371;28;20177;-66
2023/12/23 10:16:58;;;;;;;1.40;0.97;;;;;;;8.35;72.83;95716.41;4965025;28;20193;-66
2023/12/23 10:19:24;;;;;;;0.90;0.80;;;;;;;8.12;73.72;95725.28;4967451;28;20185;-67
2023/12/23 10:21:50;;;;;;;1.73;0.90;;;;;;;8.19;74.80;95718.88;4961483;28;20218;-65
2023/12/23 10:24:15;;;;;;;1.23;1.10;;;;;;;8.16;74.42;95734.69;4957685;28;20856;-67
2023/12/23 10:26:42;;;;;;;1.67;1.10;;;;;;;8.26;74.47;95717.66;4958715;28;20974;-66
2023/12/23 10:29:09;;;;;;;1.40;1.00;;;;;;;8.15;74.16;95727.78;4960681;28;20509;-68
2023/12/23 10:31:35;;;;;;;1.50;1.00;;;;;;;8.17;74.77;95725.97;4960711;28;20437;-68
2023/12/23 10:34:07;;;;;;;2.10;0.93;;;;;;;8.36;73.68;95725.09;4959000;28;20667;-66
2023/12/23 10:36:32;;;;;;;1.30;0.90;;;;;;;8.26;74.54;95728.13;4958780;28;20463;-67
2023/12/23 10:39:02;;;;;;;3.20;1.20;;;;;;;8.10;74.75;95734.13;4965431;28;20436;-66
2023/12/23 10:41:39;;;;;;;5.93;1.40;;;;;;;8.20;74.58;95740.66;4966552;28;20174;-66
2023/12/23 10:44:05;;;;;;;3.03;0.97;;;;;;;8.22;75.12;95733.56;4966638;28;20443;-67
2023/12/23 10:46:32;;;;;;;1.83;0.93;;;;;;;8.23;74.79;95735.28;4965251;28;21230;-66
2023/12/23 10:48:59;;;;;;;2.37;1.00;;;;;;;8.12;75.39;95754.03;4959599;28;20189;-65
2023/12/23 10:51:25;;;;;;;6.50;1.10;;;;;;;8.21;75.15;95765.84;4966287;28;20561;-67
2023/12/23 10:53:52;;;;;;;3.57;1.80;;;;;;;8.23;75.09;95764.88;4956733;28;20472;-68
2023/12/23 10:56:18;;;;;;;16.07;3.53;;;;;;;8.29;74.67;95755.88;4969017;28;20486;-68
2023/12/23 10:58:43;;;;;;;50.40;8.67;;;;;;;8.27;74.84;95755.97;4965009;28;20799;-67
2023/12/23 11:01:12;;;;;;;36.27;5.67;;;;;;;8.25;74.51;95757.81;4964455;28;20754;-67
2023/12/23 11:03:39;;;;;;;15.30;2.30;;;;;;;8.35;74.68;95768.69;4965795;28;20209;-67
2023/12/23 11:06:06;;;;;;;30.27;4.07;;;;;;;8.17;75.75;95764.28;4965193;28;20464;-67
2023/12/23 11:08:32;;;;;;;9.10;1.97;;;;;;;8.19;76.03;95767.69;4962721;28;20515;-67
2023/12/23 11:10:58;;;;;;;7.00;1.40;;;;;;;8.25;75.51;95762.19;4958916;28;20428;-67
2023/12/23 11:13:26;;;;;;;3.73;1.30;;;;;;;8.15;75.30;95771.34;4965599;28;20471;-67
2023/12/23 11:15:51;;;;;;;1.83;1.03;;;;;;;8.28;74.88;95762.88;4965106;28;20653;-67
2023/12/23 11:18:16;;;;;;;3.50;1.00;;;;;;;8.33;74.45;95749.59;4966528;28;20451;-67
2023/12/23 11:20:44;;;;;;;1.93;1.10;;;;;;;8.31;74.26;95761.06;4962150;28;20272;-67
2023/12/23 11:23:33;;;;;;;7.80;0.90;;;;;;;8.34;74.36;95756.56;4966560;28;20808;-67
2023/12/23 11:26:00;;;;;;;27.27;2.60;;;;;;;8.28;74.82;95759.44;4960576;28;20477;-67
2023/12/23 11:28:26;;;;;;;3.70;2.00;;;;;;;8.25;75.15;95752.59;4960701;28;20500;-67
2023/12/23 11:30:54;;;;;;;3.43;1.53;;;;;;;8.22;74.86;95754.47;4956962;28;20434;-67
2023/12/23 11:33:21;;;;;;;1.77;1.00;;;;;;;8.15;76.22;95759.16;4960994;28;20532;-67
2023/12/23 11:35:47;;;;;;;1.93;1.10;;;;;;;8.22;76.34;95760.56;4963767;28;20527;-67